createdAt,value
2018-03-07T00:01:08.890Z,50.73
2018-03-07T00:03:35.285Z,53.97
2018-03-07T00:06:01.707Z,50.30
2018-03-07T00:08:28.141Z,48.07
2018-03-07T00:10:54.620Z,49.30
2018-03-07T00:13:21.057Z,49.10
2018-03-07T00:15:47.418Z,48.33
2018-03-07T00:18:13.825Z,49.93
2018-03-07T00:20:40.215Z,47.20
2018-03-07T00:23:06.614Z,52.13
2018-03-07T00:25:32.970Z,47.33
2018-03-07T00:27:59.349Z,47.33
2018-03-07T00:30:25.794Z,51.63
2018-03-07T00:32:52.169Z,49.37
2018-03-07T00:35:18.529Z,47.10
2018-03-07T00:37:44.910Z,38.30
2018-03-07T00:40:11.286Z,35.40
2018-03-07T00:42:37.646Z,42.57
2018-03-07T00:45:04.009Z,32.67
2018-03-07T00:47:30.405Z,28.57
2018-03-07T00:49:56.794Z,31.97
2018-03-07T00:52:23.182Z,35.17
2018-03-07T00:54:49.630Z,31.53
2018-03-07T00:57:16.033Z,28.33
2018-03-07T00:59:42.462Z,29.83
2018-03-07T01:02:08.934Z,28.73
2018-03-07T01:04:35.284Z,28.80
2018-03-07T01:07:01.723Z,22.50
2018-03-07T01:09:28.146Z,26.87
2018-03-07T01:11:54.500Z,31.70
2018-03-07T01:14:20.865Z,25.43
2018-03-07T01:16:47.205Z,25.60
2018-03-07T01:19:13.597Z,30.80
2018-03-07T01:21:39.965Z,29.30
2018-03-07T01:24:06.370Z,20.03
2018-03-07T01:26:32.760Z,24.20
2018-03-07T01:28:59.209Z,21.33
2018-03-07T01:31:25.588Z,22.57
2018-03-07T01:33:51.937Z,24.10
2018-03-07T01:36:18.285Z,20.97
2018-03-07T01:38:44.697Z,23.50
2018-03-07T01:41:11.049Z,21.23
2018-03-07T01:43:37.478Z,21.67
2018-03-07T01:46:03.857Z,15.30
2018-03-07T01:48:30.353Z,20.03
2018-03-07T01:50:56.733Z,18.60
2018-03-07T01:53:23.182Z,19.67
2018-03-07T01:55:49.577Z,24.63
2018-03-07T01:58:15.925Z,22.47
2018-03-07T02:00:42.294Z,22.80
2018-03-07T02:03:08.693Z,22.53
2018-03-07T02:05:35.066Z,22.07
2018-03-07T02:08:01.442Z,21.83
2018-03-07T02:10:27.841Z,23.57
2018-03-07T02:12:54.200Z,24.07
2018-03-07T02:15:20.599Z,21.83
2018-03-07T02:17:46.977Z,24.97
2018-03-07T02:20:13.409Z,24.00
2018-03-07T02:22:39.794Z,27.13
2018-03-07T02:25:06.173Z,18.00
2018-03-07T02:27:32.610Z,18.70
2018-03-07T02:29:58.997Z,25.63
2018-03-07T02:32:25.506Z,21.07
2018-03-07T02:34:51.927Z,21.63
2018-03-07T02:37:18.376Z,26.03
2018-03-07T02:39:44.782Z,18.23
2018-03-07T02:42:11.261Z,17.67
2018-03-07T02:44:37.642Z,20.40
2018-03-07T02:47:04.106Z,21.50
2018-03-07T02:49:30.563Z,22.40
2018-03-07T02:51:56.964Z,21.47
2018-03-07T02:54:23.418Z,31.63
2018-03-07T02:56:49.795Z,24.57
2018-03-07T02:59:16.190Z,27.03
2018-03-07T03:01:42.581Z,28.23
2018-03-07T03:04:08.950Z,25.03
2018-03-07T03:06:35.333Z,27.73
2018-03-07T03:09:01.728Z,24.30
2018-03-07T03:11:28.266Z,29.97
2018-03-07T03:13:54.638Z,35.87
2018-03-07T03:16:21.045Z,36.00
2018-03-07T03:18:47.422Z,31.30
2018-03-07T03:21:13.817Z,38.13
2018-03-07T03:23:40.229Z,40.70
2018-03-07T03:26:06.628Z,43.50
2018-03-07T03:28:33.066Z,43.13
2018-03-07T03:30:59.578Z,44.97
2018-03-07T03:33:25.979Z,44.30
2018-03-07T03:35:52.457Z,43.03
2018-03-07T03:38:18.853Z,43.27
2018-03-07T03:40:45.281Z,47.87
2018-03-07T03:43:11.655Z,49.73
2018-03-07T03:45:38.069Z,48.53
2018-03-07T03:48:04.481Z,47.93
2018-03-07T03:50:30.906Z,54.13
2018-03-07T03:52:57.306Z,47.30
2018-03-07T03:55:23.674Z,48.53
2018-03-07T03:57:50.106Z,49.57
2018-03-07T04:00:16.593Z,44.90
2018-03-07T04:02:43.054Z,49.20
2018-03-07T04:05:09.482Z,52.13
2018-03-07T04:07:35.842Z,52.77
2018-03-07T04:10:02.237Z,52.10
2018-03-07T04:12:28.622Z,54.20
2018-03-07T04:14:55.246Z,55.87
2018-03-07T04:17:21.771Z,56.00
2018-03-07T04:19:48.171Z,65.13
2018-03-07T04:22:14.518Z,59.30
2018-03-07T04:24:40.902Z,61.57
2018-03-07T04:27:07.274Z,65.67
2018-03-07T04:29:33.634Z,69.70
2018-03-07T04:32:00.026Z,73.20
2018-03-07T04:34:26.424Z,69.73
2018-03-07T04:36:52.798Z,70.87
2018-03-07T04:39:19.205Z,77.17
2018-03-07T04:41:45.574Z,77.23
2018-03-07T04:44:11.950Z,74.67
2018-03-07T04:46:38.337Z,73.07
2018-03-07T04:49:04.735Z,79.63
2018-03-07T04:51:31.127Z,81.23
2018-03-07T04:53:57.522Z,78.00
2018-03-07T04:56:23.943Z,73.93
2018-03-07T04:58:50.326Z,80.90
2018-03-07T05:01:16.733Z,69.40
2018-03-07T05:03:43.104Z,72.20
2018-03-07T05:06:09.490Z,65.33
2018-03-07T05:08:35.900Z,76.60
2018-03-07T05:11:02.305Z,81.17
2018-03-07T05:13:28.660Z,83.93
2018-03-07T05:15:55.013Z,68.97
2018-03-07T05:18:21.488Z,78.80
2018-03-07T05:20:47.835Z,87.30
2018-03-07T05:23:14.202Z,85.20
2018-03-07T05:25:40.577Z,82.27
2018-03-07T05:28:06.985Z,73.13
2018-03-07T05:30:33.422Z,78.77
2018-03-07T05:32:59.842Z,72.30
2018-03-07T05:35:26.193Z,78.33
2018-03-07T05:37:52.618Z,74.60
2018-03-07T05:40:19.078Z,96.83
2018-03-07T05:42:45.494Z,76.97
2018-03-07T05:45:11.872Z,73.73
2018-03-07T05:47:38.238Z,66.83
2018-03-07T05:50:04.629Z,129.93
2018-03-07T05:52:30.989Z,100.60
2018-03-07T05:54:57.384Z,80.63
2018-03-07T05:57:23.765Z,82.47
2018-03-07T05:59:50.177Z,84.90
2018-03-07T06:02:16.584Z,102.37
2018-03-07T06:04:42.985Z,78.43
2018-03-07T06:07:09.393Z,74.70
2018-03-07T06:09:35.842Z,134.47
2018-03-07T06:12:02.301Z,113.20
2018-03-07T06:14:28.747Z,95.77
2018-03-07T06:16:55.102Z,93.23
2018-03-07T06:19:21.474Z,90.97
2018-03-07T06:21:47.901Z,115.20
2018-03-07T06:24:14.267Z,89.30
2018-03-07T06:26:40.689Z,93.87
2018-03-07T06:29:07.500Z,103.50
2018-03-07T06:31:33.921Z,87.53
2018-03-07T06:34:00.372Z,93.70
2018-03-07T06:36:26.773Z,82.70
2018-03-07T06:38:53.158Z,83.43
2018-03-07T06:41:19.543Z,102.40
2018-03-07T06:43:45.953Z,87.73
2018-03-07T06:46:12.409Z,129.93
2018-03-07T06:48:38.801Z,120.57
2018-03-07T06:51:05.262Z,120.80
2018-03-07T06:53:31.594Z,122.53
2018-03-07T06:55:57.990Z,136.47
2018-03-07T06:58:24.394Z,140.37
2018-03-07T07:00:50.786Z,149.60
2018-03-07T07:03:17.198Z,99.93
2018-03-07T07:05:43.653Z,102.10
2018-03-07T07:08:10.091Z,95.90
2018-03-07T07:10:36.836Z,70.90
2018-03-07T07:13:03.569Z,63.30
2018-03-07T07:15:30.005Z,68.20
2018-03-07T07:17:56.429Z,72.00
2018-03-07T07:20:22.915Z,68.37
2018-03-07T07:22:49.298Z,73.53
2018-03-07T07:25:15.710Z,70.20
2018-03-07T07:27:42.163Z,79.50
2018-03-07T07:30:08.574Z,73.57
2018-03-07T07:32:35.107Z,58.07
2018-03-07T07:35:01.609Z,70.57
2018-03-07T07:37:28.087Z,68.23
2018-03-07T07:39:54.474Z,72.87
2018-03-07T07:42:20.926Z,71.67
2018-03-07T07:44:47.425Z,74.50
2018-03-07T07:47:14.059Z,69.27
2018-03-07T07:49:40.583Z,83.57
2018-03-07T07:52:07.090Z,72.27
2018-03-07T07:57:05.654Z,72.57
2018-03-07T07:59:32.002Z,63.30
2018-03-07T08:01:58.518Z,72.63
2018-03-07T08:06:56.894Z,71.43
2018-03-07T08:09:23.329Z,65.90
2018-03-07T08:14:22.017Z,73.77
2018-03-07T08:16:48.574Z,76.47
2018-03-07T08:19:14.948Z,90.60
2018-03-07T08:21:41.440Z,78.20
2018-03-07T08:24:07.917Z,76.87
2018-03-07T08:26:34.374Z,73.87
2018-03-07T08:29:00.814Z,76.43
2018-03-07T08:31:27.247Z,75.20
2018-03-07T08:33:53.664Z,72.87
2018-03-07T08:36:20.163Z,81.97
2018-03-07T08:38:46.682Z,63.43
2018-03-07T08:41:13.104Z,78.27
2018-03-07T08:43:39.492Z,72.47
2018-03-07T08:46:05.912Z,71.90
2018-03-07T08:48:32.285Z,77.13
2018-03-07T08:50:58.757Z,74.10
2018-03-07T08:53:25.153Z,76.73
2018-03-07T08:55:51.539Z,88.03
2018-03-07T08:58:17.946Z,79.30
2018-03-07T09:00:44.369Z,98.20
2018-03-07T09:03:10.789Z,66.03
2018-03-07T09:05:37.390Z,85.13
2018-03-07T09:08:03.794Z,83.20
2018-03-07T09:10:30.250Z,79.77
2018-03-07T09:12:56.851Z,100.17
2018-03-07T09:15:23.310Z,133.43
2018-03-07T09:17:49.654Z,73.67
2018-03-07T09:20:16.144Z,79.13
2018-03-07T09:22:42.621Z,86.37
2018-03-07T09:25:09.041Z,71.80
2018-03-07T09:27:35.442Z,76.00
2018-03-07T09:30:01.856Z,63.63
2018-03-07T09:32:28.377Z,65.40
2018-03-07T09:34:54.804Z,73.63
2018-03-07T09:37:21.161Z,80.27
2018-03-07T09:39:47.557Z,77.20
2018-03-07T09:42:13.982Z,80.20
2018-03-07T09:44:40.493Z,74.77
2018-03-07T09:47:06.963Z,72.67
2018-03-07T09:49:33.368Z,71.30
2018-03-07T09:51:59.831Z,68.10
2018-03-07T09:54:26.206Z,56.43
2018-03-07T09:56:52.685Z,63.00
2018-03-07T09:59:19.062Z,66.63
2018-03-07T10:01:45.552Z,61.37
2018-03-07T10:04:11.978Z,57.03
2018-03-07T10:06:38.458Z,61.80
2018-03-07T10:09:04.881Z,63.30
2018-03-07T10:11:31.426Z,62.07
2018-03-07T10:13:57.854Z,50.87
2018-03-07T10:18:56.436Z,52.23
2018-03-07T10:21:22.886Z,62.00
2018-03-07T10:23:49.299Z,48.43
2018-03-07T10:26:15.691Z,55.23
2018-03-07T10:28:42.097Z,52.90
2018-03-07T10:31:08.631Z,51.43
2018-03-07T10:33:35.430Z,51.83
2018-03-07T10:36:02.131Z,56.27
2018-03-07T10:38:28.676Z,49.43
2018-03-07T10:40:55.106Z,50.70
2018-03-07T10:43:21.572Z,54.03
2018-03-07T10:45:48.026Z,55.40
2018-03-07T10:48:14.419Z,47.40
2018-03-07T10:50:40.916Z,48.17
2018-03-07T10:53:07.326Z,49.60
2018-03-07T10:55:33.886Z,56.00
2018-03-07T10:58:00.380Z,50.93
2018-03-07T11:00:32.664Z,49.17
2018-03-07T11:02:59.098Z,54.77
2018-03-07T11:05:25.498Z,51.70
2018-03-07T11:07:51.963Z,44.17
2018-03-07T11:10:18.456Z,50.03
2018-03-07T11:12:44.913Z,45.73
2018-03-07T11:15:11.331Z,51.80
2018-03-07T11:17:37.955Z,52.07
2018-03-07T11:20:04.421Z,51.47
2018-03-07T11:22:30.928Z,48.00
2018-03-07T11:24:57.346Z,41.87
2018-03-07T11:27:23.819Z,51.03
2018-03-07T11:29:50.227Z,46.83
2018-03-07T11:32:16.672Z,41.37
2018-03-07T11:34:43.090Z,36.43
2018-03-07T11:37:09.570Z,42.63
2018-03-07T11:39:36.060Z,39.97
2018-03-07T11:42:02.574Z,44.03
2018-03-07T11:44:29.091Z,43.40
2018-03-07T11:46:55.514Z,39.97
2018-03-07T11:49:21.947Z,46.40
2018-03-07T11:51:48.479Z,50.00
2018-03-07T11:54:14.987Z,45.53
2018-03-07T11:56:41.469Z,50.83
2018-03-07T11:59:07.903Z,45.90
2018-03-07T12:01:34.360Z,66.47
2018-03-07T12:04:00.776Z,54.33
2018-03-07T12:06:27.275Z,53.50
2018-03-07T12:08:53.683Z,51.57
2018-03-07T12:11:20.460Z,46.17
2018-03-07T12:13:46.921Z,49.80
2018-03-07T12:16:13.504Z,47.80
2018-03-07T12:18:40.011Z,53.93
2018-03-07T12:21:06.554Z,55.77
2018-03-07T12:23:33.163Z,55.47
2018-03-07T12:25:59.735Z,57.43
2018-03-07T12:28:26.148Z,52.30
2018-03-07T12:30:52.645Z,48.30
2018-03-07T12:33:19.138Z,55.80
2018-03-07T12:35:45.550Z,64.47
2018-03-07T12:38:11.942Z,47.80
2018-03-07T12:40:38.434Z,55.03
2018-03-07T12:43:04.933Z,58.93
2018-03-07T12:45:31.367Z,55.40
2018-03-07T12:47:57.794Z,62.43
2018-03-07T12:50:24.239Z,56.90
2018-03-07T12:52:50.670Z,54.50
2018-03-07T12:55:17.053Z,55.27
2018-03-07T12:57:43.523Z,65.20
2018-03-07T13:00:09.965Z,57.73
2018-03-07T13:02:36.449Z,67.87
2018-03-07T13:05:02.912Z,45.67
2018-03-07T13:07:29.368Z,57.40
2018-03-07T13:09:55.808Z,47.83
2018-03-07T13:12:22.314Z,56.60
2018-03-07T13:14:48.806Z,57.93
2018-03-07T13:17:15.325Z,50.23
2018-03-07T13:19:41.706Z,48.70
2018-03-07T13:22:08.181Z,42.07
2018-03-07T13:24:34.622Z,37.13
2018-03-07T13:27:01.073Z,44.90
2018-03-07T13:29:27.534Z,45.30
2018-03-07T13:31:53.981Z,42.27
2018-03-07T13:34:20.457Z,52.63
2018-03-07T13:36:46.902Z,41.33
2018-03-07T13:39:13.460Z,40.80
2018-03-07T13:41:39.949Z,36.30
2018-03-07T13:44:06.310Z,41.47
2018-03-07T13:46:32.733Z,37.50
2018-03-07T13:48:59.205Z,30.90
2018-03-07T13:51:25.634Z,31.30
2018-03-07T13:53:52.046Z,26.00
2018-03-07T13:56:18.423Z,30.93
2018-03-07T13:58:44.944Z,28.23
2018-03-07T14:01:11.434Z,24.97
2018-03-07T14:03:37.944Z,27.60
2018-03-07T14:06:04.343Z,28.37
2018-03-07T14:08:30.835Z,30.57
2018-03-07T14:10:57.327Z,30.07
2018-03-07T14:13:23.790Z,32.30
2018-03-07T14:15:50.257Z,29.37
2018-03-07T14:18:16.645Z,28.60
2018-03-07T14:20:43.074Z,29.40
2018-03-07T14:23:09.565Z,31.60
2018-03-07T14:25:35.917Z,25.83
2018-03-07T14:28:02.446Z,26.27
2018-03-07T14:30:28.926Z,30.30
2018-03-07T14:32:55.349Z,33.47
2018-03-07T14:35:21.778Z,32.90
2018-03-07T14:37:48.190Z,31.23
2018-03-07T14:40:14.621Z,29.93
2018-03-07T14:42:41.034Z,33.97
2018-03-07T14:45:07.523Z,39.03
2018-03-07T14:47:34.039Z,39.13
2018-03-07T14:50:00.409Z,40.30
2018-03-07T14:52:26.914Z,42.00
2018-03-07T14:54:53.330Z,45.63
2018-03-07T14:57:19.689Z,50.37
2018-03-07T14:59:46.093Z,49.97
2018-03-07T15:02:12.580Z,53.60
2018-03-07T15:04:39.037Z,47.97
2018-03-07T15:07:05.518Z,42.57
2018-03-07T15:09:31.894Z,44.63
2018-03-07T15:11:58.314Z,45.63
2018-03-07T15:14:24.814Z,37.80
2018-03-07T15:16:51.276Z,40.40
2018-03-07T15:19:17.722Z,47.00
2018-03-07T15:21:44.145Z,44.10
2018-03-07T15:24:10.550Z,46.83
2018-03-07T15:26:37.002Z,46.37
2018-03-07T15:29:03.522Z,56.00
2018-03-07T15:31:30.103Z,51.83
2018-03-07T15:33:56.526Z,67.67
2018-03-07T15:36:22.982Z,73.07
2018-03-07T15:38:49.478Z,82.10
2018-03-07T15:41:15.926Z,85.73
2018-03-07T15:43:42.451Z,88.30
2018-03-07T15:46:08.841Z,79.57
2018-03-07T15:48:35.237Z,67.73
2018-03-07T15:51:01.715Z,87.27
2018-03-07T15:53:28.162Z,80.63
2018-03-07T15:55:54.629Z,90.73
2018-03-07T15:58:21.199Z,74.20
2018-03-07T16:00:47.620Z,111.50
2018-03-07T16:03:13.997Z,91.73
2018-03-07T16:05:40.430Z,96.03
2018-03-07T16:08:06.845Z,133.40
2018-03-07T16:10:33.266Z,129.23
2018-03-07T16:12:59.652Z,94.93
2018-03-07T16:15:26.054Z,131.47
2018-03-07T16:17:52.478Z,90.70
2018-03-07T16:20:18.910Z,113.03
2018-03-07T16:22:45.329Z,146.20
2018-03-07T16:25:11.798Z,156.53
2018-03-07T16:27:38.205Z,152.43
2018-03-07T16:30:04.750Z,149.23
2018-03-07T16:32:31.353Z,174.63
2018-03-07T16:34:57.766Z,171.33
2018-03-07T16:37:24.152Z,170.40
2018-03-07T16:39:50.611Z,164.27
2018-03-07T16:42:16.974Z,163.93
2018-03-07T16:44:43.407Z,156.03
2018-03-07T16:47:09.864Z,160.17
2018-03-07T16:49:36.314Z,161.80
2018-03-07T16:52:02.733Z,157.33
2018-03-07T16:54:29.281Z,165.57
2018-03-07T16:56:55.722Z,146.37
2018-03-07T16:59:22.275Z,154.40
2018-03-07T17:01:48.766Z,155.77
2018-03-07T17:04:15.158Z,143.77
2018-03-07T17:06:41.546Z,150.83
2018-03-07T17:09:08.051Z,138.17
2018-03-07T17:11:34.516Z,146.00
2018-03-07T17:14:00.858Z,136.57
2018-03-07T17:16:27.306Z,131.83
2018-03-07T17:18:53.702Z,145.20
2018-03-07T17:21:20.046Z,143.57
2018-03-07T17:23:46.477Z,147.83
2018-03-07T17:26:12.960Z,148.07
2018-03-07T17:28:39.370Z,141.73
2018-03-07T17:31:05.862Z,141.43
2018-03-07T17:33:32.593Z,134.87
2018-03-07T17:35:58.990Z,141.27
2018-03-07T17:38:25.489Z,152.80
2018-03-07T17:40:51.989Z,150.73
2018-03-07T17:43:18.422Z,152.43
2018-03-07T17:45:44.935Z,166.40
2018-03-07T17:48:11.382Z,183.63
2018-03-07T17:50:37.772Z,193.30
2018-03-07T17:53:04.282Z,207.87
2018-03-07T17:55:30.749Z,187.83
2018-03-07T17:57:57.209Z,216.37
2018-03-07T18:00:23.678Z,254.93
2018-03-07T18:02:50.094Z,217.57
2018-03-07T18:05:16.486Z,304.53
2018-03-07T18:07:42.893Z,291.23
2018-03-07T18:10:09.295Z,320.90
2018-03-07T18:12:35.733Z,340.50
2018-03-07T18:15:02.203Z,356.40
2018-03-07T18:17:28.571Z,327.07
2018-03-07T18:19:55.013Z,299.97
2018-03-07T18:22:21.518Z,289.93
2018-03-07T18:24:47.886Z,296.53
2018-03-07T18:27:14.422Z,282.83
2018-03-07T18:29:40.862Z,266.40
2018-03-07T18:32:07.260Z,228.47
2018-03-07T18:34:33.742Z,220.87
2018-03-07T18:37:00.198Z,208.50
2018-03-07T18:39:26.647Z,197.57
2018-03-07T18:41:53.041Z,190.83
2018-03-07T18:44:19.501Z,164.77
2018-03-07T18:46:45.926Z,175.83
2018-03-07T18:49:12.305Z,159.20
2018-03-07T18:51:38.983Z,156.60
2018-03-07T18:54:05.480Z,151.13
2018-03-07T18:56:31.937Z,129.07
2018-03-07T18:58:58.350Z,107.53
2018-03-07T19:01:24.847Z,100.37
2018-03-07T19:03:51.263Z,98.97
2018-03-07T19:06:17.747Z,95.50
2018-03-07T19:08:44.122Z,94.23
2018-03-07T19:11:10.526Z,89.97
2018-03-07T19:13:36.993Z,83.90
2018-03-07T19:16:04.349Z,81.30
2018-03-07T19:18:30.742Z,79.43
2018-03-07T19:20:57.177Z,74.50
2018-03-07T19:23:23.638Z,69.23
2018-03-07T19:25:49.989Z,67.93
2018-03-07T19:28:16.450Z,62.67
2018-03-07T19:30:42.866Z,59.50
2018-03-07T19:33:09.377Z,66.43
2018-03-07T19:35:35.748Z,67.13
2018-03-07T19:38:02.157Z,70.60
2018-03-07T19:40:28.621Z,74.90
2018-03-07T19:42:55.098Z,71.10
2018-03-07T19:45:21.466Z,79.47
2018-03-07T19:47:47.949Z,82.20
2018-03-07T19:50:14.321Z,84.07
2018-03-07T19:52:40.678Z,102.23
2018-03-07T19:55:07.102Z,93.93
2018-03-07T19:57:33.494Z,93.27
2018-03-07T19:59:59.929Z,103.80
2018-03-07T20:02:26.421Z,103.53
2018-03-07T20:04:52.877Z,98.87
2018-03-07T20:07:19.280Z,138.07
2018-03-07T20:09:45.813Z,143.87
2018-03-07T20:12:12.320Z,126.73
2018-03-07T20:14:38.638Z,146.73
2018-03-07T20:17:05.090Z,127.50
2018-03-07T20:19:31.486Z,119.10
2018-03-07T20:21:58.073Z,112.30
2018-03-07T20:24:24.518Z,113.53
2018-03-07T20:26:50.921Z,110.90
2018-03-07T20:29:17.305Z,106.60
2018-03-07T20:31:43.813Z,109.00
2018-03-07T20:34:10.189Z,112.57
2018-03-07T20:36:36.722Z,107.37
2018-03-07T20:39:03.274Z,116.77
2018-03-07T20:41:29.685Z,118.57
2018-03-07T20:43:56.089Z,110.33
2018-03-07T20:46:22.528Z,104.83
2018-03-07T20:48:48.884Z,115.70
2018-03-07T20:51:15.336Z,121.10
2018-03-07T20:53:42.688Z,120.97
2018-03-07T20:56:09.047Z,110.53
2018-03-07T20:58:35.433Z,124.80
2018-03-07T21:01:01.819Z,125.60
2018-03-07T21:03:28.246Z,139.33
2018-03-07T21:05:54.661Z,127.27
2018-03-07T21:08:21.034Z,132.10
2018-03-07T21:10:47.442Z,142.80
2018-03-07T21:13:13.862Z,132.07
2018-03-07T21:15:40.222Z,146.00
2018-03-07T21:18:06.666Z,151.17
2018-03-07T21:20:33.070Z,161.40
2018-03-07T21:22:59.470Z,175.27
2018-03-07T21:25:25.846Z,151.03
2018-03-07T21:27:52.274Z,120.07
2018-03-07T21:30:18.636Z,108.67
2018-03-07T21:32:45.061Z,99.30
2018-03-07T21:35:11.537Z,76.30
2018-03-07T21:37:37.927Z,62.50
2018-03-07T21:40:04.366Z,65.80
2018-03-07T21:42:30.719Z,64.70
2018-03-07T21:44:57.090Z,62.13
2018-03-07T21:47:23.454Z,62.00
2018-03-07T21:49:49.818Z,61.50
2018-03-07T21:52:16.179Z,63.53
2018-03-07T21:54:42.613Z,60.87
2018-03-07T21:57:08.982Z,63.63
2018-03-07T21:59:35.366Z,66.00
2018-03-07T22:02:01.729Z,70.20
2018-03-07T22:04:28.086Z,74.07
2018-03-07T22:06:54.438Z,76.77
2018-03-07T22:09:20.843Z,72.83
2018-03-07T22:11:47.218Z,75.40
2018-03-07T22:14:13.588Z,83.27
2018-03-07T22:16:39.958Z,75.47
2018-03-07T22:19:06.326Z,75.23
2018-03-07T22:21:32.753Z,76.97
2018-03-07T22:23:59.114Z,79.97
2018-03-07T22:26:25.476Z,88.50
2018-03-07T22:28:51.841Z,83.10
2018-03-07T22:31:18.274Z,88.57
2018-03-07T22:33:44.622Z,81.13
2018-03-07T22:36:10.986Z,79.53
2018-03-07T22:38:37.361Z,69.93
2018-03-07T22:41:03.854Z,72.33
2018-03-07T22:43:30.352Z,64.80
2018-03-07T22:45:56.755Z,62.10
2018-03-07T22:48:23.157Z,53.80
2018-03-07T22:50:49.549Z,52.63
2018-03-07T22:53:15.982Z,53.90
2018-03-07T22:55:42.361Z,51.43
2018-03-07T22:58:08.751Z,51.80
2018-03-07T23:00:41.198Z,49.73
2018-03-07T23:03:07.677Z,41.80
2018-03-07T23:05:34.136Z,47.57
2018-03-07T23:08:00.489Z,42.00
2018-03-07T23:10:27.053Z,42.07
2018-03-07T23:12:53.455Z,42.17
2018-03-07T23:15:19.842Z,40.53
2018-03-07T23:17:46.242Z,44.77
2018-03-07T23:20:12.721Z,41.27
2018-03-07T23:22:39.176Z,42.83
2018-03-07T23:25:05.610Z,40.30
2018-03-07T23:27:32.001Z,41.00
2018-03-07T23:29:58.449Z,42.40
2018-03-07T23:32:24.910Z,38.57
2018-03-07T23:34:51.302Z,35.87
2018-03-07T23:37:17.686Z,38.23
2018-03-07T23:39:44.078Z,35.73
2018-03-07T23:42:10.469Z,33.90
2018-03-07T23:44:36.884Z,34.37
2018-03-07T23:47:03.541Z,36.37
2018-03-07T23:49:30.002Z,34.37
2018-03-07T23:51:56.365Z,39.97
2018-03-07T23:54:22.760Z,33.50
2018-03-07T23:56:49.165Z,35.50
2018-03-07T23:59:15.718Z,32.00
